Pagrindinis puslapis
METAR-TAF:

METAR-TAF

Oro uostai :

San Marcos Municipal Airport

San Marcos, Teksasas, Jungtinės Amerikos Valstijos

platuma: 29-53-37N, ilguma: 097-51-53W, Aukštis: 182 m

Dabartinis oras

Ataskaita buvo paskelbta 42 minutes, ne 05:56 UTC
Vėjas 4 kt iš Šiaurės/Šiaurės Vakarų
Temperatūra 17°C
Drėgmė 100%
Slėgis 1014 hPa
Matomumas: 16.1 km
Giedras dangus

METAR: KHYI 270556Z AUTO 33004KT 10SM CLR 17/17 A2994 RMK AO2 SLPNO T01720167 10278 20172 403000172 50005

Laikas: 01:38 (06:38 UTC)


TAF: trūkstamas

Orai ataskaitas ir orų prognozės (METAR, TAF).

turimą stotys yra geltonos ir raudonos taškus žemėlapyje.

Perkelti pele per norėdami pamatyti stoties vardą.

Tada spustelėkite, norėdami matyti oro stebėjimo ir prognozės.

Norėdami pakeisti žemėlapį: spustelėkite ant žalios mygtukų su juodo kryžiaus žemyn,; žalią mygtuką su brūkšneliu, jei norite nutolinti; arba žalių rodyklių gretimoms žemėlapius.


METAR-TAF: